sensor_id;sensor_type;location;lat;lon;timestamp;pressure;altitude;pressure_sealevel;temperature;humidity
71735;BME280;59577;52.122;5.406;2023-07-16T00:00:18;100849.78;;;17.40;62.14
71735;BME280;59577;52.122;5.406;2023-07-16T00:02:46;100840.00;;;17.46;62.06
71735;BME280;59577;52.122;5.406;2023-07-16T00:05:13;100851.72;;;17.46;61.79
71735;BME280;59577;52.122;5.406;2023-07-16T00:07:41;100854.06;;;17.44;61.80
71735;BME280;59577;52.122;5.406;2023-07-16T00:10:08;100852.88;;;17.45;61.93
71735;BME280;59577;52.122;5.406;2023-07-16T00:12:34;100844.66;;;17.45;61.92
71735;BME280;59577;52.122;5.406;2023-07-16T00:15:01;100852.50;;;17.43;61.63
71735;BME280;59577;52.122;5.406;2023-07-16T00:17:27;100851.34;;;17.41;61.26
71735;BME280;59577;52.122;5.406;2023-07-16T00:19:54;100845.50;;;17.42;61.65
71735;BME280;59577;52.122;5.406;2023-07-16T00:22:21;100846.25;;;17.43;61.06
71735;BME280;59577;52.122;5.406;2023-07-16T00:24:47;100843.16;;;17.41;60.96
71735;BME280;59577;52.122;5.406;2023-07-16T00:27:14;100843.16;;;17.41;61.29
71735;BME280;59577;52.122;5.406;2023-07-16T00:29:41;100847.06;;;17.36;61.42
71735;BME280;59577;52.122;5.406;2023-07-16T00:32:08;100847.84;;;17.33;61.17
71735;BME280;59577;52.122;5.406;2023-07-16T00:34:34;100852.56;;;17.29;61.38
71735;BME280;59577;52.122;5.406;2023-07-16T00:37:01;100857.25;;;17.25;61.26
71735;BME280;59577;52.122;5.406;2023-07-16T00:39:29;100853.38;;;17.26;61.19
71735;BME280;59577;52.122;5.406;2023-07-16T00:41:56;100847.13;;;17.22;61.45
71735;BME280;59577;52.122;5.406;2023-07-16T00:44:23;100855.75;;;17.20;61.57
71735;BME280;59577;52.122;5.406;2023-07-16T00:46:50;100865.91;;;17.16;61.66
71735;BME280;59577;52.122;5.406;2023-07-16T00:49:17;100865.53;;;17.10;61.74
71735;BME280;59577;52.122;5.406;2023-07-16T00:51:44;100864.38;;;17.08;61.80
71735;BME280;59577;52.122;5.406;2023-07-16T00:54:11;100872.59;;;17.04;61.87
71735;BME280;59577;52.122;5.406;2023-07-16T00:56:38;100876.88;;;17.02;62.12
71735;BME280;59577;52.122;5.406;2023-07-16T00:59:04;100868.31;;;17.00;61.95
71735;BME280;59577;52.122;5.406;2023-07-16T01:01:31;100871.44;;;16.98;62.43
71735;BME280;59577;52.122;5.406;2023-07-16T01:03:58;100872.97;;;16.96;62.44
71735;BME280;59577;52.122;5.406;2023-07-16T01:06:34;100878.88;;;16.94;62.57
71735;BME280;59577;52.122;5.406;2023-07-16T01:11:29;100879.66;;;16.91;62.90
71735;BME280;59577;52.122;5.406;2023-07-16T01:13:57;100868.72;;;16.91;63.03
71735;BME280;59577;52.122;5.406;2023-07-16T01:16:25;100865.97;;;16.91;62.79
71735;BME280;59577;52.122;5.406;2023-07-16T01:18:51;100869.09;;;16.93;62.86
71735;BME280;59577;52.122;5.406;2023-07-16T01:21:21;100858.56;;;16.91;62.81
71735;BME280;59577;52.122;5.406;2023-07-16T01:26:39;100855.44;;;16.93;62.98
71735;BME280;59577;52.122;5.406;2023-07-16T01:29:33;100868.31;;;16.92;62.83
71735;BME280;59577;52.122;5.406;2023-07-16T01:32:02;100865.97;;;16.91;62.85
71735;BME280;59577;52.122;5.406;2023-07-16T01:34:32;100868.72;;;16.91;62.92
71735;BME280;59577;52.122;5.406;2023-07-16T01:37:03;100860.13;;;16.89;63.34
71735;BME280;59577;52.122;5.406;2023-07-16T01:39:31;100849.59;;;16.87;63.36
71735;BME280;59577;52.122;5.406;2023-07-16T01:41:59;100866.00;;;16.87;63.47
71735;BME280;59577;52.122;5.406;2023-07-16T01:44:25;100867.53;;;16.88;63.40
71735;BME280;59577;52.122;5.406;2023-07-16T01:47:23;100866.38;;;16.86;63.50
71735;BME280;59577;52.122;5.406;2023-07-16T01:49:50;100865.56;;;16.82;63.73
71735;BME280;59577;52.122;5.406;2023-07-16T01:52:17;100868.31;;;16.82;63.91
71735;BME280;59577;52.122;5.406;2023-07-16T01:54:43;100861.66;;;16.83;64.09
71735;BME280;59577;52.122;5.406;2023-07-16T01:57:10;100872.22;;;16.81;64.03
71735;BME280;59577;52.122;5.406;2023-07-16T01:59:37;100869.09;;;16.79;64.21
71735;BME280;59577;52.122;5.406;2023-07-16T02:02:04;100869.88;;;16.79;64.24
71735;BME280;59577;52.122;5.406;2023-07-16T02:04:30;100867.91;;;16.80;64.34
71735;BME280;59577;52.122;5.406;2023-07-16T02:06:57;100868.72;;;16.80;64.36
71735;BME280;59577;52.122;5.406;2023-07-16T02:09:23;100863.63;;;16.82;64.26
71735;BME280;59577;52.122;5.406;2023-07-16T02:11:51;100865.56;;;16.82;64.64
71735;BME280;59577;52.122;5.406;2023-07-16T02:14:18;100870.25;;;16.81;64.50
71735;BME280;59577;52.122;5.406;2023-07-16T02:16:45;100863.63;;;16.82;64.51
71735;BME280;59577;52.122;5.406;2023-07-16T02:19:11;100863.63;;;16.82;64.75
71735;BME280;59577;52.122;5.406;2023-07-16T02:21:38;100869.50;;;16.81;64.97
71735;BME280;59577;52.122;5.406;2023-07-16T02:24:04;100862.06;;;16.78;65.15
71735;BME280;59577;52.122;5.406;2023-07-16T02:26:31;100868.31;;;16.74;65.48
71735;BME280;59577;52.122;5.406;2023-07-16T02:28:58;100864.44;;;16.72;65.47
71735;BME280;59577;52.122;5.406;2023-07-16T02:31:26;100865.97;;;16.69;65.91
71735;BME280;59577;52.122;5.406;2023-07-16T02:33:52;100871.44;;;16.66;65.91
71735;BME280;59577;52.122;5.406;2023-07-16T02:36:19;100868.34;;;16.64;66.01
71735;BME280;59577;52.122;5.406;2023-07-16T02:38:46;100862.09;;;16.63;66.05
71735;BME280;59577;52.122;5.406;2023-07-16T02:41:12;100869.91;;;16.61;66.11
71735;BME280;59577;52.122;5.406;2023-07-16T02:43:39;100865.22;;;16.62;66.24
71735;BME280;59577;52.122;5.406;2023-07-16T02:46:06;100860.91;;;16.64;66.51
71735;BME280;59577;52.122;5.406;2023-07-16T02:48:32;100860.53;;;16.66;66.42
71735;BME280;59577;52.122;5.406;2023-07-16T02:50:59;100865.59;;;16.67;66.52
71735;BME280;59577;52.122;5.406;2023-07-16T02:53:25;100868.31;;;16.71;66.22
71735;BME280;59577;52.122;5.406;2023-07-16T02:55:52;100869.13;;;16.71;66.41
71735;BME280;59577;52.122;5.406;2023-07-16T02:58:18;100869.50;;;16.70;66.63
71735;BME280;59577;52.122;5.406;2023-07-16T03:00:45;100871.06;;;16.67;66.61
71735;BME280;59577;52.122;5.406;2023-07-16T03:03:12;100871.84;;;16.64;66.64
71735;BME280;59577;52.122;5.406;2023-07-16T03:05:38;100879.28;;;16.60;66.99
71735;BME280;59577;52.122;5.406;2023-07-16T03:08:05;100882.00;;;16.60;66.81
71735;BME280;59577;52.122;5.406;2023-07-16T03:10:31;100884.75;;;16.57;66.88
71735;BME280;59577;52.122;5.406;2023-07-16T03:12:58;100882.00;;;16.57;66.96
71735;BME280;59577;52.122;5.406;2023-07-16T03:15:25;100874.22;;;16.51;67.14
71735;BME280;59577;52.122;5.406;2023-07-16T03:17:51;100883.19;;;16.52;67.09
71735;BME280;59577;52.122;5.406;2023-07-16T03:20:18;100876.16;;;16.51;67.29
71735;BME280;59577;52.122;5.406;2023-07-16T03:22:45;100878.50;;;16.49;67.23
71735;BME280;59577;52.122;5.406;2023-07-16T03:25:12;100879.69;;;16.48;67.25
71735;BME280;59577;52.122;5.406;2023-07-16T03:27:39;100879.69;;;16.48;67.25
71735;BME280;59577;52.122;5.406;2023-07-16T03:30:06;100874.22;;;16.48;67.34
71735;BME280;59577;52.122;5.406;2023-07-16T03:32:33;100874.59;;;16.46;67.40
71735;BME280;59577;52.122;5.406;2023-07-16T03:35:17;100880.06;;;16.43;67.60
71735;BME280;59577;52.122;5.406;2023-07-16T03:37:43;100884.75;;;16.42;67.50
71735;BME280;59577;52.122;5.406;2023-07-16T03:40:14;100886.31;;;16.40;67.74
71735;BME280;59577;52.122;5.406;2023-07-16T03:42:42;100891.00;;;16.39;67.89
71735;BME280;59577;52.122;5.406;2023-07-16T03:45:10;100897.22;;;16.36;67.70
71735;BME280;59577;52.122;5.406;2023-07-16T03:47:37;100900.34;;;16.38;67.96
71735;BME280;59577;52.122;5.406;2023-07-16T03:50:04;100911.66;;;16.36;67.79
71735;BME280;59577;52.122;5.406;2023-07-16T03:52:31;100910.91;;;16.40;67.69
71735;BME280;59577;52.122;5.406;2023-07-16T03:54:58;100905.03;;;16.41;67.64
71735;BME280;59577;52.122;5.406;2023-07-16T03:57:24;100896.47;;;16.43;67.26
71735;BME280;59577;52.122;5.406;2023-07-16T03:59:51;100912.47;;;16.48;67.21
71735;BME280;59577;52.122;5.406;2023-07-16T04:02:17;100921.44;;;16.48;67.16
71735;BME280;59577;52.122;5.406;2023-07-16T04:04:44;100924.56;;;16.47;67.18
71735;BME280;59577;52.122;5.406;2023-07-16T04:07:11;100926.50;;;16.46;67.19
71735;BME280;59577;52.122;5.406;2023-07-16T04:09:38;100928.84;;;16.48;67.16
71735;BME280;59577;52.122;5.406;2023-07-16T04:12:06;100927.66;;;16.49;67.33
71735;BME280;59577;52.122;5.406;2023-07-16T04:14:33;100928.09;;;16.51;67.08
71735;BME280;59577;52.122;5.406;2023-07-16T04:16:59;100930.44;;;16.52;66.92
71735;BME280;59577;52.122;5.406;2023-07-16T04:19:26;100929.25;;;16.53;67.04
71735;BME280;59577;52.122;5.406;2023-07-16T04:21:52;100927.28;;;16.54;66.86
71735;BME280;59577;52.122;5.406;2023-07-16T04:24:19;100931.97;;;16.53;66.90
71735;BME280;59577;52.122;5.406;2023-07-16T04:26:46;100928.84;;;16.55;66.98
71735;BME280;59577;52.122;5.406;2023-07-16T04:29:12;100939.41;;;16.57;67.32
71735;BME280;59577;52.122;5.406;2023-07-16T04:31:39;100937.06;;;16.59;67.07
71735;BME280;59577;52.122;5.406;2023-07-16T04:34:06;100949.16;;;16.61;66.88
71735;BME280;59577;52.122;5.406;2023-07-16T04:36:32;100949.56;;;16.63;66.56
71735;BME280;59577;52.122;5.406;2023-07-16T04:38:59;100946.44;;;16.68;66.63
71735;BME280;59577;52.122;5.406;2023-07-16T04:41:26;100958.91;;;16.69;66.41
71735;BME280;59577;52.122;5.406;2023-07-16T04:43:52;100957.38;;;16.72;66.45
71735;BME280;59577;52.122;5.406;2023-07-16T04:46:19;100955.00;;;16.74;66.18
71735;BME280;59577;52.122;5.406;2023-07-16T04:48:45;100962.81;;;16.79;66.31
71735;BME280;59577;52.122;5.406;2023-07-16T04:51:12;100962.44;;;16.81;65.92
71735;BME280;59577;52.122;5.406;2023-07-16T04:53:39;100964.44;;;16.84;65.97
71735;BME280;59577;52.122;5.406;2023-07-16T04:56:14;100964.41;;;16.87;65.74
71735;BME280;59577;52.122;5.406;2023-07-16T04:58:41;100965.97;;;16.92;65.72
71735;BME280;59577;52.122;5.406;2023-07-16T05:01:09;100969.88;;;16.98;65.50
71735;BME280;59577;52.122;5.406;2023-07-16T05:03:36;100966.75;;;17.00;64.96
71735;BME280;59577;52.122;5.406;2023-07-16T05:06:03;100968.69;;;17.06;65.28
71735;BME280;59577;52.122;5.406;2023-07-16T05:08:30;100969.06;;;17.12;65.12
71735;BME280;59577;52.122;5.406;2023-07-16T05:10:57;100966.31;;;17.19;65.00
71735;BME280;59577;52.122;5.406;2023-07-16T05:13:23;100972.16;;;17.25;64.57
71735;BME280;59577;52.122;5.406;2023-07-16T05:15:50;100968.63;;;17.39;64.66
71735;BME280;59577;52.122;5.406;2023-07-16T05:18:16;100970.94;;;17.44;63.90
71735;BME280;59577;52.122;5.406;2023-07-16T05:20:47;100964.69;;;17.51;63.94
71735;BME280;59577;52.122;5.406;2023-07-16T05:23:14;100968.16;;;17.62;63.42
71735;BME280;59577;52.122;5.406;2023-07-16T05:25:50;100975.19;;;17.70;63.12
71735;BME280;59577;52.122;5.406;2023-07-16T05:28:18;100974.72;;;17.90;62.79
71735;BME280;59577;52.122;5.406;2023-07-16T05:30:45;100976.19;;;18.09;62.03
71735;BME280;59577;52.122;5.406;2023-07-16T05:33:12;100980.75;;;18.33;61.64
71735;BME280;59577;52.122;5.406;2023-07-16T05:35:39;100978.06;;;19.24;59.90
71735;BME280;59577;52.122;5.406;2023-07-16T05:38:06;100976.13;;;20.47;55.30
71735;BME280;59577;52.122;5.406;2023-07-16T05:40:32;100987.47;;;21.44;52.46
71735;BME280;59577;52.122;5.406;2023-07-16T05:42:59;101000.69;;;22.09;50.90
71735;BME280;59577;52.122;5.406;2023-07-16T05:45:26;100988.88;;;23.11;47.72
71735;BME280;59577;52.122;5.406;2023-07-16T05:47:52;100997.69;;;23.77;46.52
71735;BME280;59577;52.122;5.406;2023-07-16T05:50:19;101001.59;;;24.83;44.00
71735;BME280;59577;52.122;5.406;2023-07-16T05:52:46;100999.63;;;24.83;43.09
71735;BME280;59577;52.122;5.406;2023-07-16T05:55:14;101004.16;;;24.77;43.72
71735;BME280;59577;52.122;5.406;2023-07-16T05:57:41;101006.81;;;25.28;42.72
71735;BME280;59577;52.122;5.406;2023-07-16T06:00:08;101010.81;;;25.49;42.10
71735;BME280;59577;52.122;5.406;2023-07-16T06:02:35;101020.31;;;26.24;40.38
71735;BME280;59577;52.122;5.406;2023-07-16T06:05:02;101006.34;;;26.96;39.82
71735;BME280;59577;52.122;5.406;2023-07-16T06:07:29;101010.38;;;27.41;37.47
71735;BME280;59577;52.122;5.406;2023-07-16T06:09:55;101001.06;;;28.14;37.19
71735;BME280;59577;52.122;5.406;2023-07-16T06:12:22;101020.16;;;27.98;35.91
71735;BME280;59577;52.122;5.406;2023-07-16T06:14:48;101014.00;;;27.84;36.35
71735;BME280;59577;52.122;5.406;2023-07-16T06:17:15;101015.31;;;28.41;35.70
71735;BME280;59577;52.122;5.406;2023-07-16T06:19:42;101007.09;;;28.22;35.39
71735;BME280;59577;52.122;5.406;2023-07-16T06:22:09;101012.22;;;28.72;35.00
71735;BME280;59577;52.122;5.406;2023-07-16T06:24:35;101025.75;;;28.88;33.93
71735;BME280;59577;52.122;5.406;2023-07-16T06:27:02;101010.63;;;28.23;35.60
71735;BME280;59577;52.122;5.406;2023-07-16T06:29:29;101015.59;;;28.52;34.42
71735;BME280;59577;52.122;5.406;2023-07-16T06:31:56;101026.34;;;28.35;34.80
71735;BME280;59577;52.122;5.406;2023-07-16T06:34:24;101026.09;;;29.05;34.22
71735;BME280;59577;52.122;5.406;2023-07-16T06:36:51;101020.44;;;29.54;33.32
71735;BME280;59577;52.122;5.406;2023-07-16T06:39:17;101025.34;;;29.89;32.91
71735;BME280;59577;52.122;5.406;2023-07-16T06:41:44;101022.03;;;30.20;32.35
71735;BME280;59577;52.122;5.406;2023-07-16T06:44:10;101031.94;;;29.47;33.08
71735;BME280;59577;52.122;5.406;2023-07-16T06:46:37;101027.66;;;28.49;35.15
71735;BME280;59577;52.122;5.406;2023-07-16T06:49:05;101023.97;;;28.76;34.43
71735;BME280;59577;52.122;5.406;2023-07-16T06:51:32;101018.59;;;29.12;33.52
71735;BME280;59577;52.122;5.406;2023-07-16T06:53:59;101036.81;;;28.98;34.16
71735;BME280;59577;52.122;5.406;2023-07-16T06:56:26;101033.78;;;29.11;33.53
71735;BME280;59577;52.122;5.406;2023-07-16T06:58:53;101040.22;;;29.26;33.82
71735;BME280;59577;52.122;5.406;2023-07-16T07:01:19;101037.75;;;28.95;33.73
71735;BME280;59577;52.122;5.406;2023-07-16T07:03:46;101041.72;;;28.88;34.67
71735;BME280;59577;52.122;5.406;2023-07-16T07:06:13;101042.94;;;29.65;34.21
71735;BME280;59577;52.122;5.406;2023-07-16T07:08:40;101054.84;;;30.25;32.74
71735;BME280;59577;52.122;5.406;2023-07-16T07:11:06;101042.94;;;29.65;33.11
71735;BME280;59577;52.122;5.406;2023-07-16T07:13:33;101051.84;;;29.24;33.74
71735;BME280;59577;52.122;5.406;2023-07-16T07:15:59;101064.97;;;26.39;37.84
71735;BME280;59577;52.122;5.406;2023-07-16T07:18:26;101070.75;;;25.21;41.10
71735;BME280;59577;52.122;5.406;2023-07-16T07:20:52;101070.53;;;25.50;40.67
71735;BME280;59577;52.122;5.406;2023-07-16T07:23:19;101088.44;;;25.37;41.67
71735;BME280;59577;52.122;5.406;2023-07-16T07:25:49;101088.22;;;25.44;41.13
71735;BME280;59577;52.122;5.406;2023-07-16T07:28:18;101056.34;;;25.13;41.17
71735;BME280;59577;52.122;5.406;2023-07-16T07:30:45;101079.34;;;24.50;42.92
71735;BME280;59577;52.122;5.406;2023-07-16T07:33:12;101082.44;;;25.73;41.62
71735;BME280;59577;52.122;5.406;2023-07-16T07:35:39;101088.91;;;25.22;41.02
71735;BME280;59577;52.122;5.406;2023-07-16T07:38:05;101079.25;;;24.92;42.89
71735;BME280;59577;52.122;5.406;2023-07-16T07:40:32;101086.16;;;25.79;42.06
71735;BME280;59577;52.122;5.406;2023-07-16T07:42:59;101086.19;;;24.96;42.01
71735;BME280;59577;52.122;5.406;2023-07-16T07:45:26;101087.63;;;24.50;43.35
71735;BME280;59577;52.122;5.406;2023-07-16T07:47:52;101098.91;;;24.30;44.81
71735;BME280;59577;52.122;5.406;2023-07-16T07:50:19;101095.50;;;24.38;44.26
71735;BME280;59577;52.122;5.406;2023-07-16T07:52:46;101102.91;;;23.41;45.28
71735;BME280;59577;52.122;5.406;2023-07-16T07:55:12;101102.91;;;22.75;47.49
71735;BME280;59577;52.122;5.406;2023-07-16T07:57:39;101118.69;;;22.38;47.71
71735;BME280;59577;52.122;5.406;2023-07-16T08:00:06;101112.28;;;22.05;48.84
71735;BME280;59577;52.122;5.406;2023-07-16T08:02:37;101110.41;;;21.78;49.68
71735;BME280;59577;52.122;5.406;2023-07-16T08:05:05;101114.00;;;21.75;50.23
71735;BME280;59577;52.122;5.406;2023-07-16T08:07:32;101116.81;;;21.51;50.91
71735;BME280;59577;52.122;5.406;2023-07-16T08:09:58;101118.19;;;21.83;50.68
71735;BME280;59577;52.122;5.406;2023-07-16T08:12:25;101106.09;;;21.97;50.58
71735;BME280;59577;52.122;5.406;2023-07-16T08:14:51;101118.97;;;22.24;50.02
71735;BME280;59577;52.122;5.406;2023-07-16T08:17:18;101116.88;;;22.11;50.08
71735;BME280;59577;52.122;5.406;2023-07-16T08:19:49;101120.94;;;21.83;50.72
71735;BME280;59577;52.122;5.406;2023-07-16T08:22:15;101137.81;;;21.85;51.87
71735;BME280;59577;52.122;5.406;2023-07-16T08:24:42;101148.25;;;21.97;50.27
71735;BME280;59577;52.122;5.406;2023-07-16T08:27:09;101137.06;;;22.05;50.40
71735;BME280;59577;52.122;5.406;2023-07-16T08:29:36;101144.16;;;22.99;49.53
71735;BME280;59577;52.122;5.406;2023-07-16T08:32:03;101126.66;;;23.22;49.81
71735;BME280;59577;52.122;5.406;2023-07-16T08:34:30;101121.91;;;23.39;48.26
71735;BME280;59577;52.122;5.406;2023-07-16T08:36:56;101132.31;;;22.82;48.66
71735;BME280;59577;52.122;5.406;2023-07-16T08:39:23;101153.66;;;22.61;50.48
71735;BME280;59577;52.122;5.406;2023-07-16T08:41:52;101139.28;;;22.70;50.19
71735;BME280;59577;52.122;5.406;2023-07-16T08:44:20;101157.31;;;22.58;49.49
71735;BME280;59577;52.122;5.406;2023-07-16T08:46:47;101154.41;;;22.25;50.59
71735;BME280;59577;52.122;5.406;2023-07-16T08:49:17;101156.13;;;21.75;51.18
71735;BME280;59577;52.122;5.406;2023-07-16T08:51:49;101161.44;;;21.39;52.53
71735;BME280;59577;52.122;5.406;2023-07-16T08:54:16;101157.84;;;21.18;52.93
71735;BME280;59577;52.122;5.406;2023-07-16T08:56:44;101158.97;;;21.21;53.44
71735;BME280;59577;52.122;5.406;2023-07-16T08:59:10;101160.00;;;21.31;53.41
71735;BME280;59577;52.122;5.406;2023-07-16T09:01:37;101174.59;;;21.55;53.20
71735;BME280;59577;52.122;5.406;2023-07-16T09:04:04;101169.50;;;21.77;52.82
71735;BME280;59577;52.122;5.406;2023-07-16T09:06:31;101170.81;;;21.89;52.34
71735;BME280;59577;52.122;5.406;2023-07-16T09:08:57;101167.34;;;22.28;51.84
71735;BME280;59577;52.122;5.406;2023-07-16T09:11:24;101173.47;;;22.92;50.25
71735;BME280;59577;52.122;5.406;2023-07-16T09:13:51;101172.69;;;23.12;49.40
71735;BME280;59577;52.122;5.406;2023-07-16T09:16:18;101171.09;;;22.95;49.17
71735;BME280;59577;52.122;5.406;2023-07-16T09:18:45;101188.84;;;22.94;49.20
71735;BME280;59577;52.122;5.406;2023-07-16T09:21:11;101179.00;;;22.56;49.86
71735;BME280;59577;52.122;5.406;2023-07-16T09:23:38;101192.50;;;22.10;50.01
71735;BME280;59577;52.122;5.406;2023-07-16T09:26:05;101195.06;;;21.77;51.34
71735;BME280;59577;52.122;5.406;2023-07-16T09:28:32;101184.03;;;21.77;51.15
71735;BME280;59577;52.122;5.406;2023-07-16T09:31:06;101189.75;;;21.87;52.42
71735;BME280;59577;52.122;5.406;2023-07-16T09:33:33;101202.88;;;22.03;51.64
71735;BME280;59577;52.122;5.406;2023-07-16T09:36:00;101191.66;;;22.33;51.50
71735;BME280;59577;52.122;5.406;2023-07-16T09:38:29;101187.56;;;22.42;50.23
71735;BME280;59577;52.122;5.406;2023-07-16T09:40:56;101194.66;;;22.43;50.38
71735;BME280;59577;52.122;5.406;2023-07-16T09:43:23;101199.25;;;22.49;50.45
71735;BME280;59577;52.122;5.406;2023-07-16T09:45:50;101202.44;;;22.48;50.97
71735;BME280;59577;52.122;5.406;2023-07-16T09:48:17;101197.50;;;22.39;50.62
71735;BME280;59577;52.122;5.406;2023-07-16T09:50:50;101198.19;;;22.43;50.64
71735;BME280;59577;52.122;5.406;2023-07-16T09:53:21;101197.81;;;22.61;50.99
71735;BME280;59577;52.122;5.406;2023-07-16T09:55:52;101205.50;;;22.70;50.24
71735;BME280;59577;52.122;5.406;2023-07-16T09:58:19;101215.97;;;22.79;50.88
71735;BME280;59577;52.122;5.406;2023-07-16T10:00:48;101210.84;;;22.61;50.21
71735;BME280;59577;52.122;5.406;2023-07-16T10:03:17;101219.63;;;22.36;51.07
71735;BME280;59577;52.122;5.406;2023-07-16T10:05:44;101218.25;;;22.24;51.88
71735;BME280;59577;52.122;5.406;2023-07-16T10:08:16;101216.16;;;22.31;52.12
71735;BME280;59577;52.122;5.406;2023-07-16T10:10:54;101207.09;;;22.51;51.85
71735;BME280;59577;52.122;5.406;2023-07-16T10:13:24;101224.03;;;22.89;50.29
71735;BME280;59577;52.122;5.406;2023-07-16T10:18:31;101223.00;;;23.86;48.80
71735;BME280;59577;52.122;5.406;2023-07-16T10:21:05;101225.38;;;24.29;48.80
71735;BME280;59577;52.122;5.406;2023-07-16T10:23:42;101219.28;;;24.21;46.93
71735;BME280;59577;52.122;5.406;2023-07-16T10:26:12;101220.03;;;23.93;48.13
71735;BME280;59577;52.122;5.406;2023-07-16T10:28:45;101229.41;;;23.33;48.25
71735;BME280;59577;52.122;5.406;2023-07-16T10:31:21;101243.06;;;22.84;49.88
71735;BME280;59577;52.122;5.406;2023-07-16T10:36:24;101254.13;;;22.44;50.47
71735;BME280;59577;52.122;5.406;2023-07-16T10:38:51;101258.88;;;22.20;50.69
71735;BME280;59577;52.122;5.406;2023-07-16T10:41:20;101236.13;;;21.92;51.66
71735;BME280;59577;52.122;5.406;2023-07-16T10:43:49;101257.97;;;22.06;51.93
71735;BME280;59577;52.122;5.406;2023-07-16T10:46:20;101261.00;;;22.36;51.52
71735;BME280;59577;52.122;5.406;2023-07-16T10:48:47;101260.31;;;22.51;50.45
71735;BME280;59577;52.122;5.406;2023-07-16T10:51:15;101255.97;;;22.70;50.61
71735;BME280;59577;52.122;5.406;2023-07-16T10:53:43;101265.31;;;22.77;50.21
71735;BME280;59577;52.122;5.406;2023-07-16T10:56:10;101257.25;;;22.86;49.67
71735;BME280;59577;52.122;5.406;2023-07-16T10:58:37;101269.56;;;22.81;50.13
71735;BME280;59577;52.122;5.406;2023-07-16T11:01:04;101273.09;;;22.82;50.53
71735;BME280;59577;52.122;5.406;2023-07-16T11:03:31;101278.09;;;22.87;50.39
71735;BME280;59577;52.122;5.406;2023-07-16T11:05:57;101279.78;;;23.01;50.06
71735;BME280;59577;52.122;5.406;2023-07-16T11:08:24;101273.22;;;23.15;50.26
71735;BME280;59577;52.122;5.406;2023-07-16T11:10:56;101282.91;;;23.23;49.95
71735;BME280;59577;52.122;5.406;2023-07-16T11:13:31;101285.34;;;23.54;49.16
71735;BME280;59577;52.122;5.406;2023-07-16T11:16:07;101267.41;;;23.95;49.47
71735;BME280;59577;52.122;5.406;2023-07-16T11:18:35;101287.69;;;23.55;49.25
71735;BME280;59577;52.122;5.406;2023-07-16T11:21:03;101274.06;;;23.12;50.02
71735;BME280;59577;52.122;5.406;2023-07-16T11:23:34;101293.06;;;22.89;50.67
71735;BME280;59577;52.122;5.406;2023-07-16T11:26:04;101286.09;;;22.61;51.04
71735;BME280;59577;52.122;5.406;2023-07-16T11:28:41;101283.09;;;22.76;50.87
71735;BME280;59577;52.122;5.406;2023-07-16T11:31:15;101291.63;;;22.61;51.73
71735;BME280;59577;52.122;5.406;2023-07-16T11:33:45;101301.81;;;22.64;51.67
71735;BME280;59577;52.122;5.406;2023-07-16T11:36:13;101310.59;;;22.79;51.05
71735;BME280;59577;52.122;5.406;2023-07-16T11:38:41;101296.47;;;22.77;50.70
71735;BME280;59577;52.122;5.406;2023-07-16T11:41:07;101301.16;;;23.17;50.95
71735;BME280;59577;52.122;5.406;2023-07-16T11:43:35;101313.84;;;23.51;50.98
71735;BME280;59577;52.122;5.406;2023-07-16T11:46:14;101310.78;;;23.81;48.29
71735;BME280;59577;52.122;5.406;2023-07-16T11:48:43;101310.06;;;23.61;48.84
71735;BME280;59577;52.122;5.406;2023-07-16T11:51:09;101305.63;;;23.47;48.78
71735;BME280;59577;52.122;5.406;2023-07-16T11:53:36;101309.41;;;23.37;48.64
71735;BME280;59577;52.122;5.406;2023-07-16T11:56:05;101317.16;;;23.78;48.86
71735;BME280;59577;52.122;5.406;2023-07-16T11:58:31;101322.88;;;24.04;47.21
71735;BME280;59577;52.122;5.406;2023-07-16T12:00:58;101317.63;;;24.39;47.56
71735;BME280;59577;52.122;5.406;2023-07-16T12:03:25;101318.63;;;24.16;44.95
71735;BME280;59577;52.122;5.406;2023-07-16T12:05:51;101321.91;;;24.11;45.92
71735;BME280;59577;52.122;5.406;2023-07-16T12:08:19;101324.25;;;23.79;45.58
71735;BME280;59577;52.122;5.406;2023-07-16T12:10:46;101324.00;;;23.90;46.61
71735;BME280;59577;52.122;5.406;2023-07-16T12:13:13;101308.19;;;24.07;46.32
71735;BME280;59577;52.122;5.406;2023-07-16T12:15:40;101312.66;;;24.17;45.65
71735;BME280;59577;52.122;5.406;2023-07-16T12:18:06;101304.63;;;23.74;45.47
71735;BME280;59577;52.122;5.406;2023-07-16T12:20:34;101328.03;;;23.69;47.09
71735;BME280;59577;52.122;5.406;2023-07-16T12:23:02;101315.31;;;23.72;47.38
71735;BME280;59577;52.122;5.406;2023-07-16T12:25:29;101319.59;;;24.09;46.55
71735;BME280;59577;52.122;5.406;2023-07-16T12:27:56;101335.28;;;24.29;45.71
71735;BME280;59577;52.122;5.406;2023-07-16T12:30:24;101326.25;;;23.95;45.15
71735;BME280;59577;52.122;5.406;2023-07-16T12:32:51;101328.53;;;23.80;46.42
71735;BME280;59577;52.122;5.406;2023-07-16T12:35:17;101331.66;;;24.15;46.63
71735;BME280;59577;52.122;5.406;2023-07-16T12:37:44;101318.97;;;24.18;44.63
71735;BME280;59577;52.122;5.406;2023-07-16T12:40:11;101340.94;;;24.09;45.75
71735;BME280;59577;52.122;5.406;2023-07-16T12:42:38;101322.53;;;24.48;45.85
71735;BME280;59577;52.122;5.406;2023-07-16T12:45:05;101341.97;;;24.31;45.03
71735;BME280;59577;52.122;5.406;2023-07-16T12:47:31;101326.31;;;24.25;46.37
71735;BME280;59577;52.122;5.406;2023-07-16T12:49:58;101327.41;;;24.27;45.25
71735;BME280;59577;52.122;5.406;2023-07-16T12:52:25;101337.41;;;23.92;44.77
71735;BME280;59577;52.122;5.406;2023-07-16T12:54:51;101341.19;;;23.81;45.33
71735;BME280;59577;52.122;5.406;2023-07-16T12:57:21;101333.47;;;24.22;45.27
71735;BME280;59577;52.122;5.406;2023-07-16T12:59:47;101346.00;;;24.72;44.97
71735;BME280;59577;52.122;5.406;2023-07-16T13:02:14;101348.44;;;24.70;44.38